sensor_id;sensor_type;location;lat;lon;timestamp;pressure;altitude;pressure_sealevel;temperature;humidity
35489;BME280;21602;55.670;37.578;2023-01-31T00:01:24;97210.16;;;-1.07;91.01
35489;BME280;21602;55.670;37.578;2023-01-31T00:03:55;97214.59;;;-1.07;90.90
35489;BME280;21602;55.670;37.578;2023-01-31T00:06:26;97211.59;;;-1.11;90.82
35489;BME280;21602;55.670;37.578;2023-01-31T00:08:54;97212.38;;;-1.10;90.90
35489;BME280;21602;55.670;37.578;2023-01-31T00:11:22;97220.63;;;-1.07;91.13
35489;BME280;21602;55.670;37.578;2023-01-31T00:13:50;97219.19;;;-1.02;90.71
35489;BME280;21602;55.670;37.578;2023-01-31T00:16:17;97211.56;;;-1.04;90.85
35489;BME280;21602;55.670;37.578;2023-01-31T00:18:43;97220.81;;;-1.01;90.81
35489;BME280;21602;55.670;37.578;2023-01-31T00:23:35;97214.72;;;-0.95;90.80
35489;BME280;21602;55.670;37.578;2023-01-31T00:26:19;97222.78;;;-0.97;90.38
35489;BME280;21602;55.670;37.578;2023-01-31T00:28:46;97220.56;;;-1.00;90.56
35489;BME280;21602;55.670;37.578;2023-01-31T00:31:14;97224.50;;;-1.09;90.70
35489;BME280;21602;55.670;37.578;2023-01-31T00:33:43;97230.38;;;-1.14;91.03
35489;BME280;21602;55.670;37.578;2023-01-31T00:36:12;97219.44;;;-1.11;90.85
35489;BME280;21602;55.670;37.578;2023-01-31T00:38:38;97215.81;;;-1.10;90.72
35489;BME280;21602;55.670;37.578;2023-01-31T00:41:04;97207.94;;;-1.10;90.85
35489;BME280;21602;55.670;37.578;2023-01-31T00:43:32;97209.38;;;-1.07;90.69
35489;BME280;21602;55.670;37.578;2023-01-31T00:45:58;97217.78;;;-1.05;90.58
35489;BME280;21602;55.670;37.578;2023-01-31T00:48:25;97224.66;;;-1.04;90.55
35489;BME280;21602;55.670;37.578;2023-01-31T00:50:51;97238.13;;;-1.00;90.45
35489;BME280;21602;55.670;37.578;2023-01-31T00:53:17;97238.72;;;-0.98;90.33
35489;BME280;21602;55.670;37.578;2023-01-31T00:55:49;97248.19;;;-0.97;90.54
35489;BME280;21602;55.670;37.578;2023-01-31T00:58:15;97242.94;;;-0.97;90.23
35489;BME280;21602;55.670;37.578;2023-01-31T01:00:41;97249.16;;;-0.92;90.25
35489;BME280;21602;55.670;37.578;2023-01-31T01:03:08;97236.44;;;-0.88;90.07
35489;BME280;21602;55.670;37.578;2023-01-31T01:05:34;97238.03;;;-0.87;89.95
35489;BME280;21602;55.670;37.578;2023-01-31T01:08:00;97238.03;;;-0.87;89.66
35489;BME280;21602;55.670;37.578;2023-01-31T01:10:26;97247.28;;;-0.85;89.58
35489;BME280;21602;55.670;37.578;2023-01-31T01:12:51;97251.53;;;-0.84;89.87
35489;BME280;21602;55.670;37.578;2023-01-31T01:15:17;97236.59;;;-0.83;89.97
35489;BME280;21602;55.670;37.578;2023-01-31T01:17:43;97248.91;;;-0.90;89.85
35489;BME280;21602;55.670;37.578;2023-01-31T01:20:09;97255.19;;;-0.91;90.11
35489;BME280;21602;55.670;37.578;2023-01-31T01:22:37;97251.94;;;-0.87;90.19
35489;BME280;21602;55.670;37.578;2023-01-31T01:25:03;97248.09;;;-0.84;89.93
35489;BME280;21602;55.670;37.578;2023-01-31T01:27:30;97241.84;;;-0.83;89.90
35489;BME280;21602;55.670;37.578;2023-01-31T01:29:56;97254.34;;;-0.85;90.08
35489;BME280;21602;55.670;37.578;2023-01-31T01:32:23;97246.50;;;-0.85;90.08
35489;BME280;21602;55.670;37.578;2023-01-31T01:34:51;97250.72;;;-0.84;90.23
35489;BME280;21602;55.670;37.578;2023-01-31T01:37:17;97254.88;;;-0.77;90.12
35489;BME280;21602;55.670;37.578;2023-01-31T01:39:50;97256.28;;;-0.74;89.61
35489;BME280;21602;55.670;37.578;2023-01-31T01:42:24;97261.28;;;-0.66;89.70
35489;BME280;21602;55.670;37.578;2023-01-31T01:44:56;97265.72;;;-0.66;89.31
35489;BME280;21602;55.670;37.578;2023-01-31T01:47:32;97270.13;;;-0.67;89.32
35489;BME280;21602;55.670;37.578;2023-01-31T01:52:39;97262.09;;;-0.72;89.26
35489;BME280;21602;55.670;37.578;2023-01-31T01:56:01;97258.50;;;-0.71;89.12
35489;BME280;21602;55.670;37.578;2023-01-31T01:58:23;97256.69;;;-0.77;89.15
35489;BME280;21602;55.670;37.578;2023-01-31T02:00:52;97243.03;;;-0.79;89.11
35489;BME280;21602;55.670;37.578;2023-01-31T02:03:18;97245.19;;;-0.76;89.33
35489;BME280;21602;55.670;37.578;2023-01-31T02:05:55;97247.66;;;-0.81;89.31
35489;BME280;21602;55.670;37.578;2023-01-31T02:08:24;97247.66;;;-0.81;89.41
35489;BME280;21602;55.670;37.578;2023-01-31T02:10:56;97236.19;;;-0.80;89.39
35489;BME280;21602;55.670;37.578;2023-01-31T02:13:24;97235.38;;;-0.81;89.40
35489;BME280;21602;55.670;37.578;2023-01-31T02:15:49;97233.56;;;-0.80;89.36
35489;BME280;21602;55.670;37.578;2023-01-31T02:18:16;97237.78;;;-0.79;89.27
35489;BME280;21602;55.670;37.578;2023-01-31T02:26:17;97228.03;;;-0.72;89.15
35489;BME280;21602;55.670;37.578;2023-01-31T02:37:36;97221.09;;;-0.85;88.90
35489;BME280;21602;55.670;37.578;2023-01-31T02:43:06;97232.06;;;-0.94;88.93
35489;BME280;21602;55.670;37.578;2023-01-31T02:45:50;97224.78;;;-0.92;89.12
35489;BME280;21602;55.670;37.578;2023-01-31T02:51:19;97227.16;;;-0.84;89.09
35489;BME280;21602;55.670;37.578;2023-01-31T02:53:55;97238.34;;;-0.77;88.88
35489;BME280;21602;55.670;37.578;2023-01-31T02:56:29;97231.47;;;-0.71;88.69
35489;BME280;21602;55.670;37.578;2023-01-31T02:59:18;97237.53;;;-0.71;88.67
35489;BME280;21602;55.670;37.578;2023-01-31T03:01:55;97235.16;;;-0.79;88.40
35489;BME280;21602;55.670;37.578;2023-01-31T03:04:23;97233.19;;;-0.84;88.53
35489;BME280;21602;55.670;37.578;2023-01-31T03:07:00;97237.41;;;-0.83;88.49
35489;BME280;21602;55.670;37.578;2023-01-31T03:09:35;97240.00;;;-0.83;88.61
35489;BME280;21602;55.670;37.578;2023-01-31T03:12:27;97236.75;;;-0.78;88.54
35489;BME280;21602;55.670;37.578;2023-01-31T03:23:10;97250.63;;;-0.71;88.42
35489;BME280;21602;55.670;37.578;2023-01-31T03:25:38;97251.03;;;-0.74;88.39
35489;BME280;21602;55.670;37.578;2023-01-31T03:28:12;97256.66;;;-0.70;88.37
35489;BME280;21602;55.670;37.578;2023-01-31T03:30:44;97256.22;;;-0.67;88.35
35489;BME280;21602;55.670;37.578;2023-01-31T03:35:46;97256.88;;;-0.72;88.16
35489;BME280;21602;55.670;37.578;2023-01-31T03:38:20;97260.09;;;-0.70;88.48
35489;BME280;21602;55.670;37.578;2023-01-31T03:40:54;97271.78;;;-0.72;88.27
35489;BME280;21602;55.670;37.578;2023-01-31T03:46:29;97268.13;;;-0.71;88.34
35489;BME280;21602;55.670;37.578;2023-01-31T03:48:58;97272.59;;;-0.72;88.26
35489;BME280;21602;55.670;37.578;2023-01-31T03:51:30;97277.41;;;-0.69;88.11
35489;BME280;21602;55.670;37.578;2023-01-31T03:54:12;97277.00;;;-0.66;88.30
35489;BME280;21602;55.670;37.578;2023-01-31T03:56:57;97277.78;;;-0.65;88.12
35489;BME280;21602;55.670;37.578;2023-01-31T03:59:27;97275.97;;;-0.65;88.46
35489;BME280;21602;55.670;37.578;2023-01-31T04:01:57;97272.94;;;-0.62;88.09
35489;BME280;21602;55.670;37.578;2023-01-31T04:04:30;97274.31;;;-0.59;88.08
35489;BME280;21602;55.670;37.578;2023-01-31T04:07:00;97271.31;;;-0.63;88.12
35489;BME280;21602;55.670;37.578;2023-01-31T04:09:26;97261.63;;;-0.62;88.11
35489;BME280;21602;55.670;37.578;2023-01-31T04:11:52;97275.91;;;-0.58;88.08
35489;BME280;21602;55.670;37.578;2023-01-31T04:14:18;97281.13;;;-0.52;87.94
35489;BME280;21602;55.670;37.578;2023-01-31T04:16:44;97282.31;;;-0.47;87.69
35489;BME280;21602;55.670;37.578;2023-01-31T04:19:10;97281.28;;;-0.46;87.61
35489;BME280;21602;55.670;37.578;2023-01-31T04:21:36;97283.75;;;-0.52;87.64
35489;BME280;21602;55.670;37.578;2023-01-31T04:24:02;97286.16;;;-0.50;87.78
35489;BME280;21602;55.670;37.578;2023-01-31T04:26:29;97287.34;;;-0.53;87.59
35489;BME280;21602;55.670;37.578;2023-01-31T04:28:55;97287.56;;;-0.47;87.66
35489;BME280;21602;55.670;37.578;2023-01-31T04:31:21;97294.97;;;-0.44;87.56
35489;BME280;21602;55.670;37.578;2023-01-31T04:33:46;97288.53;;;-0.48;87.37
35489;BME280;21602;55.670;37.578;2023-01-31T04:36:12;97299.81;;;-0.48;87.36
35489;BME280;21602;55.670;37.578;2023-01-31T04:38:38;97308.53;;;-0.47;87.68
35489;BME280;21602;55.670;37.578;2023-01-31T04:41:04;97307.69;;;-0.48;87.46
35489;BME280;21602;55.670;37.578;2023-01-31T04:43:30;97302.63;;;-0.43;87.55
35489;BME280;21602;55.670;37.578;2023-01-31T04:45:56;97303.84;;;-0.45;87.29
35489;BME280;21602;55.670;37.578;2023-01-31T04:48:21;97306.47;;;-0.45;87.26
35489;BME280;21602;55.670;37.578;2023-01-31T04:50:47;97317.22;;;-0.54;87.51
35489;BME280;21602;55.670;37.578;2023-01-31T04:53:13;97318.47;;;-0.56;87.71
35489;BME280;21602;55.670;37.578;2023-01-31T04:55:40;97321.28;;;-0.58;87.94
35489;BME280;21602;55.670;37.578;2023-01-31T04:58:06;97318.06;;;-0.60;88.13
35489;BME280;21602;55.670;37.578;2023-01-31T05:00:31;97317.84;;;-0.58;88.29
35489;BME280;21602;55.670;37.578;2023-01-31T05:02:57;97316.41;;;-0.54;88.34
35489;BME280;21602;55.670;37.578;2023-01-31T05:05:23;97318.63;;;-0.51;88.18
35489;BME280;21602;55.670;37.578;2023-01-31T05:07:49;97318.56;;;-0.44;88.28
35489;BME280;21602;55.670;37.578;2023-01-31T05:10:15;97323.00;;;-0.45;88.15
35489;BME280;21602;55.670;37.578;2023-01-31T05:12:42;97316.00;;;-0.51;88.05
35489;BME280;21602;55.670;37.578;2023-01-31T05:15:08;97315.03;;;-0.57;88.38
35489;BME280;21602;55.670;37.578;2023-01-31T05:17:36;97313.00;;;-0.55;88.25
35489;BME280;21602;55.670;37.578;2023-01-31T05:20:03;97317.81;;;-0.52;88.52
35489;BME280;21602;55.670;37.578;2023-01-31T05:22:30;97325.47;;;-0.50;88.22
35489;BME280;21602;55.670;37.578;2023-01-31T05:24:56;97327.88;;;-0.48;88.47
35489;BME280;21602;55.670;37.578;2023-01-31T05:27:22;97331.28;;;-0.48;88.55
35489;BME280;21602;55.670;37.578;2023-01-31T05:29:47;97336.09;;;-0.45;88.40
35489;BME280;21602;55.670;37.578;2023-01-31T05:32:14;97334.72;;;-0.47;88.39
35489;BME280;21602;55.670;37.578;2023-01-31T05:34:42;97328.66;;;-0.48;88.55
35489;BME280;21602;55.670;37.578;2023-01-31T05:37:07;97339.38;;;-0.49;88.53
35489;BME280;21602;55.670;37.578;2023-01-31T05:39:36;97329.84;;;-0.44;88.73
35489;BME280;21602;55.670;37.578;2023-01-31T05:42:02;97340.13;;;-0.42;88.72
35489;BME280;21602;55.670;37.578;2023-01-31T05:44:28;97335.63;;;-0.35;88.75
35489;BME280;21602;55.670;37.578;2023-01-31T05:46:53;97336.41;;;-0.28;88.55
35489;BME280;21602;55.670;37.578;2023-01-31T05:49:19;97330.34;;;-0.29;88.23
35489;BME280;21602;55.670;37.578;2023-01-31T05:51:45;97332.00;;;-0.34;88.15
35489;BME280;21602;55.670;37.578;2023-01-31T05:54:12;97343.91;;;-0.38;88.17
35489;BME280;21602;55.670;37.578;2023-01-31T05:56:38;97329.66;;;-0.42;88.17
35489;BME280;21602;55.670;37.578;2023-01-31T05:59:05;97330.44;;;-0.42;88.51
35489;BME280;21602;55.670;37.578;2023-01-31T06:01:30;97343.34;;;-0.40;88.36
35489;BME280;21602;55.670;37.578;2023-01-31T06:03:56;97338.50;;;-0.43;88.39
35489;BME280;21602;55.670;37.578;2023-01-31T06:06:22;97342.94;;;-0.44;88.55
35489;BME280;21602;55.670;37.578;2023-01-31T06:08:48;97348.63;;;-0.47;88.54
35489;BME280;21602;55.670;37.578;2023-01-31T06:11:14;97352.69;;;-0.51;88.58
35489;BME280;21602;55.670;37.578;2023-01-31T06:13:41;97362.72;;;-0.48;88.93
35489;BME280;21602;55.670;37.578;2023-01-31T06:16:10;97364.53;;;-0.42;88.71
35489;BME280;21602;55.670;37.578;2023-01-31T06:18:37;97356.66;;;-0.42;88.80
35489;BME280;21602;55.670;37.578;2023-01-31T06:21:03;97365.97;;;-0.46;88.57
35489;BME280;21602;55.670;37.578;2023-01-31T06:23:29;97361.13;;;-0.42;88.52
35489;BME280;21602;55.670;37.578;2023-01-31T06:25:55;97360.09;;;-0.41;88.81
35489;BME280;21602;55.670;37.578;2023-01-31T06:28:21;97364.25;;;-0.34;88.88
35489;BME280;21602;55.670;37.578;2023-01-31T06:30:48;97363.03;;;-0.31;88.71
35489;BME280;21602;55.670;37.578;2023-01-31T06:33:14;97361.44;;;-0.32;88.57
35489;BME280;21602;55.670;37.578;2023-01-31T06:35:40;97375.34;;;-0.32;88.83
35489;BME280;21602;55.670;37.578;2023-01-31T06:38:06;97364.63;;;-0.30;88.79
35489;BME280;21602;55.670;37.578;2023-01-31T06:40:33;97373.91;;;-0.28;88.58
35489;BME280;21602;55.670;37.578;2023-01-31T06:43:00;97390.00;;;-0.24;88.62
35489;BME280;21602;55.670;37.578;2023-01-31T06:45:26;97388.00;;;-0.22;88.61
35489;BME280;21602;55.670;37.578;2023-01-31T06:47:52;97396.44;;;-0.20;88.34
35489;BME280;21602;55.670;37.578;2023-01-31T06:50:18;97391.56;;;-0.16;88.09
35489;BME280;21602;55.670;37.578;2023-01-31T06:52:43;97397.03;;;-0.18;88.22
35489;BME280;21602;55.670;37.578;2023-01-31T06:55:10;97388.09;;;-0.10;88.23
35489;BME280;21602;55.670;37.578;2023-01-31T06:57:36;97381.78;;;-0.03;88.21
35489;BME280;21602;55.670;37.578;2023-01-31T07:00:03;97392.88;;;-0.01;87.83
35489;BME280;21602;55.670;37.578;2023-01-31T07:02:30;97395.84;;;0.10;87.85
35489;BME280;21602;55.670;37.578;2023-01-31T07:04:57;97391.16;;;0.12;87.78
35489;BME280;21602;55.670;37.578;2023-01-31T07:07:23;97398.25;;;0.11;87.49
35489;BME280;21602;55.670;37.578;2023-01-31T07:09:48;97396.41;;;0.12;87.51
35489;BME280;21602;55.670;37.578;2023-01-31T07:12:14;97411.78;;;0.08;87.46
35489;BME280;21602;55.670;37.578;2023-01-31T07:14:40;97408.34;;;0.08;87.54
35489;BME280;21602;55.670;37.578;2023-01-31T07:17:06;97409.78;;;0.04;87.32
35489;BME280;21602;55.670;37.578;2023-01-31T07:19:34;97416.44;;;0.06;87.59
35489;BME280;21602;55.670;37.578;2023-01-31T07:21:59;97418.25;;;0.06;87.78
35489;BME280;21602;55.670;37.578;2023-01-31T07:24:26;97417.25;;;0.07;87.52
35489;BME280;21602;55.670;37.578;2023-01-31T07:26:52;97416.06;;;0.03;87.55
35489;BME280;21602;55.670;37.578;2023-01-31T07:29:18;97419.06;;;0.06;87.61
35489;BME280;21602;55.670;37.578;2023-01-31T07:31:44;97424.16;;;0.01;87.64
35489;BME280;21602;55.670;37.578;2023-01-31T07:34:10;97434.41;;;0.03;87.56
35489;BME280;21602;55.670;37.578;2023-01-31T07:36:36;97429.75;;;0.05;87.74
35489;BME280;21602;55.670;37.578;2023-01-31T07:39:02;97432.56;;;0.10;87.78
35489;BME280;21602;55.670;37.578;2023-01-31T07:41:28;97439.56;;;0.16;87.40
35489;BME280;21602;55.670;37.578;2023-01-31T07:43:54;97431.09;;;0.14;87.28
35489;BME280;21602;55.670;37.578;2023-01-31T07:46:20;97432.13;;;0.13;87.24
35489;BME280;21602;55.670;37.578;2023-01-31T07:48:45;97433.31;;;0.17;87.25
35489;BME280;21602;55.670;37.578;2023-01-31T07:51:11;97439.34;;;0.17;87.35
35489;BME280;21602;55.670;37.578;2023-01-31T07:53:39;97436.34;;;0.14;87.39
35489;BME280;21602;55.670;37.578;2023-01-31T07:56:14;97441.75;;;0.19;87.49
35489;BME280;21602;55.670;37.578;2023-01-31T07:58:42;97448.00;;;0.24;87.52
35489;BME280;21602;55.670;37.578;2023-01-31T08:01:14;97449.59;;;0.25;87.36
35489;BME280;21602;55.670;37.578;2023-01-31T08:03:58;97452.25;;;0.19;87.25
35489;BME280;21602;55.670;37.578;2023-01-31T08:06:26;97451.41;;;0.25;87.10
35489;BME280;21602;55.670;37.578;2023-01-31T08:08:53;97457.41;;;0.32;87.07
35489;BME280;21602;55.670;37.578;2023-01-31T08:11:19;97461.59;;;0.40;87.11
35489;BME280;21602;55.670;37.578;2023-01-31T08:13:46;97460.78;;;0.39;86.57
35489;BME280;21602;55.670;37.578;2023-01-31T08:16:12;97460.63;;;0.34;86.62
35489;BME280;21602;55.670;37.578;2023-01-31T08:18:38;97466.16;;;0.26;86.57
35489;BME280;21602;55.670;37.578;2023-01-31T08:21:06;97463.94;;;0.23;87.02
35489;BME280;21602;55.670;37.578;2023-01-31T08:23:33;97466.31;;;0.31;86.88
35489;BME280;21602;55.670;37.578;2023-01-31T08:26:07;97470.03;;;0.42;86.72
35489;BME280;21602;55.670;37.578;2023-01-31T08:28:36;97475.28;;;0.42;86.57
35489;BME280;21602;55.670;37.578;2023-01-31T08:31:03;97471.84;;;0.48;86.67
35489;BME280;21602;55.670;37.578;2023-01-31T08:33:29;97471.84;;;0.48;86.41
35489;BME280;21602;55.670;37.578;2023-01-31T08:35:55;97476.44;;;0.53;86.26
35489;BME280;21602;55.670;37.578;2023-01-31T08:38:21;97477.81;;;0.55;86.13
35489;BME280;21602;55.670;37.578;2023-01-31T08:40:47;97472.50;;;0.62;86.28
35489;BME280;21602;55.670;37.578;2023-01-31T08:43:14;97487.41;;;0.68;86.04
35489;BME280;21602;55.670;37.578;2023-01-31T08:45:41;97478.50;;;0.69;85.83
35489;BME280;21602;55.670;37.578;2023-01-31T08:48:07;97481.28;;;0.74;85.93
35489;BME280;21602;55.670;37.578;2023-01-31T08:50:33;97478.44;;;0.75;85.84
35489;BME280;21602;55.670;37.578;2023-01-31T08:53:02;97483.13;;;0.73;85.57
35489;BME280;21602;55.670;37.578;2023-01-31T08:55:30;97478.28;;;0.70;85.81
35489;BME280;21602;55.670;37.578;2023-01-31T08:57:56;97473.63;;;0.72;86.04
35489;BME280;21602;55.670;37.578;2023-01-31T09:00:22;97477.22;;;0.78;85.82
35489;BME280;21602;55.670;37.578;2023-01-31T09:02:53;97476.25;;;0.72;85.61
35489;BME280;21602;55.670;37.578;2023-01-31T09:05:19;97482.03;;;0.81;85.68
35489;BME280;21602;55.670;37.578;2023-01-31T09:07:49;97484.19;;;0.91;85.60
35489;BME280;21602;55.670;37.578;2023-01-31T09:10:16;97487.59;;;0.91;85.46
35489;BME280;21602;55.670;37.578;2023-01-31T09:12:42;97485.81;;;0.85;85.16
35489;BME280;21602;55.670;37.578;2023-01-31T09:15:08;97482.78;;;0.88;85.37
35489;BME280;21602;55.670;37.578;2023-01-31T09:17:34;97484.03;;;0.86;85.26
35489;BME280;21602;55.670;37.578;2023-01-31T09:20:00;97494.09;;;0.89;85.25
35489;BME280;21602;55.670;37.578;2023-01-31T09:22:32;97489.19;;;0.92;85.54
35489;BME280;21602;55.670;37.578;2023-01-31T09:24:59;97487.75;;;0.96;85.04
35489;BME280;21602;55.670;37.578;2023-01-31T09:27:25;97481.25;;;0.99;84.96
35489;BME280;21602;55.670;37.578;2023-01-31T09:29:51;97483.38;;;1.09;85.10
35489;BME280;21602;55.670;37.578;2023-01-31T09:32:16;97471.34;;;1.19;84.93
35489;BME280;21602;55.670;37.578;2023-01-31T09:34:42;97473.75;;;1.21;84.30
35489;BME280;21602;55.670;37.578;2023-01-31T09:37:33;97479.81;;;1.21;84.28
35489;BME280;21602;55.670;37.578;2023-01-31T09:39:59;97471.53;;;1.18;84.30
35489;BME280;21602;55.670;37.578;2023-01-31T09:42:29;97472.44;;;1.12;84.41
35489;BME280;21602;55.670;37.578;2023-01-31T09:45:09;97467.91;;;1.19;84.42
35489;BME280;21602;55.670;37.578;2023-01-31T09:47:39;97481.63;;;1.21;84.40
35489;BME280;21602;55.670;37.578;2023-01-31T09:50:20;97481.25;;;1.17;84.18
35489;BME280;21602;55.670;37.578;2023-01-31T09:52:47;97482.06;;;1.18;84.20
35489;BME280;21602;55.670;37.578;2023-01-31T09:56:03;97483.22;;;1.22;84.12
35489;BME280;21602;55.670;37.578;2023-01-31T10:00:34;97485.28;;;1.20;84.04
35489;BME280;21602;55.670;37.578;2023-01-31T10:03:21;97489.53;;;1.21;84.43
35489;BME280;21602;55.670;37.578;2023-01-31T10:06:07;97487.59;;;1.28;84.21
35489;BME280;21602;55.670;37.578;2023-01-31T10:08:49;97478.56;;;1.24;83.84
35489;BME280;21602;55.670;37.578;2023-01-31T10:17:28;97487.31;;;1.36;83.68
35489;BME280;21602;55.670;37.578;2023-01-31T10:27:50;97496.66;;;1.32;83.04
35489;BME280;21602;55.670;37.578;2023-01-31T10:30:24;97498.28;;;1.33;83.21
35489;BME280;21602;55.670;37.578;2023-01-31T10:32:57;97503.75;;;1.32;83.20
35489;BME280;21602;55.670;37.578;2023-01-31T10:35:27;97502.06;;;1.37;83.44
35489;BME280;21602;55.670;37.578;2023-01-31T10:38:14;97495.94;;;1.43;83.04
35489;BME280;21602;55.670;37.578;2023-01-31T10:40:43;97503.91;;;1.37;82.79
35489;BME280;21602;55.670;37.578;2023-01-31T10:43:26;97502.00;;;1.25;83.11
35489;BME280;21602;55.670;37.578;2023-01-31T10:45:56;97504.03;;;1.23;83.10
35489;BME280;21602;55.670;37.578;2023-01-31T10:48:23;97508.50;;;1.23;83.23
35489;BME280;21602;55.670;37.578;2023-01-31T10:50:55;97502.81;;;1.26;83.34
35489;BME280;21602;55.670;37.578;2023-01-31T10:56:36;97510.31;;;1.22;83.11
35489;BME280;21602;55.670;37.578;2023-01-31T10:59:12;97511.56;;;1.20;83.31
35489;BME280;21602;55.670;37.578;2023-01-31T11:01:41;97510.47;;;1.27;83.61
35489;BME280;21602;55.670;37.578;2023-01-31T11:04:40;97504.56;;;1.32;83.21
35489;BME280;21602;55.670;37.578;2023-01-31T11:07:10;97499.59;;;1.24;83.03
35489;BME280;21602;55.670;37.578;2023-01-31T11:09:42;97506.09;;;1.21;83.48
35489;BME280;21602;55.670;37.578;2023-01-31T11:12:08;97514.34;;;1.25;83.47
35489;BME280;21602;55.670;37.578;2023-01-31T11:14:34;97511.06;;;1.30;83.13
35489;BME280;21602;55.670;37.578;2023-01-31T11:17:27;97510.25;;;1.29;83.15
35489;BME280;21602;55.670;37.578;2023-01-31T11:19:54;97510.25;;;1.29;83.38
35489;BME280;21602;55.670;37.578;2023-01-31T11:22:23;97511.72;;;1.25;83.29
35489;BME280;21602;55.670;37.578;2023-01-31T11:24:50;97513.47;;;1.31;83.38
35489;BME280;21602;55.670;37.578;2023-01-31T11:27:43;97520.28;;;1.39;83.04
35489;BME280;21602;55.670;37.578;2023-01-31T11:30:26;97514.56;;;1.42;83.10
35489;BME280;21602;55.670;37.578;2023-01-31T11:32:53;97511.50;;;1.45;82.99
35489;BME280;21602;55.670;37.578;2023-01-31T11:37:51;97515.72;;;1.46;83.04
35489;BME280;21602;55.670;37.578;2023-01-31T11:45:51;97514.94;;;1.45;82.81
35489;BME280;21602;55.670;37.578;2023-01-31T11:48:24;97526.91;;;1.41;82.71
35489;BME280;21602;55.670;37.578;2023-01-31T11:50:57;97523.56;;;1.34;82.82
35489;BME280;21602;55.670;37.578;2023-01-31T11:54:09;97521.22;;;1.26;82.87
35489;BME280;21602;55.670;37.578;2023-01-31T11:56:19;97520.03;;;1.22;83.02
35489;BME280;21602;55.670;37.578;2023-01-31T11:58:49;97524.41;;;1.28;83.30
35489;BME280;21602;55.670;37.578;2023-01-31T12:01:22;97524.59;;;1.33;83.23
35489;BME280;21602;55.670;37.578;2023-01-31T12:03:56;97531.63;;;1.33;82.92
35489;BME280;21602;55.670;37.578;2023-01-31T12:06:39;97530.53;;;1.22;83.15
35489;BME280;21602;55.670;37.578;2023-01-31T12:09:27;97533.16;;;1.22;83.28
35489;BME280;21602;55.670;37.578;2023-01-31T12:14:22;97535.06;;;1.15;83.26
35489;BME280;21602;55.670;37.578;2023-01-31T12:16:53;97536.69;;;1.16;83.56
35489;BME280;21602;55.670;37.578;2023-01-31T12:19:37;97540.47;;;1.20;83.64
35489;BME280;21602;55.670;37.578;2023-01-31T12:22:18;97536.25;;;1.19;83.54
35489;BME280;21602;55.670;37.578;2023-01-31T12:44:27;97561.22;;;1.10;84.24
35489;BME280;21602;55.670;37.578;2023-01-31T12:49:58;97560.44;;;1.02;84.44
35489;BME280;21602;55.670;37.578;2023-01-31T12:55:19;97567.06;;;0.87;85.29
35489;BME280;21602;55.670;37.578;2023-01-31T12:58:13;97567.63;;;0.89;85.17
35489;BME280;21602;55.670;37.578;2023-01-31T13:06:49;97563.94;;;0.96;84.96
35489;BME280;21602;55.670;37.578;2023-01-31T13:09:20;97572.69;;;0.90;85.44
35489;BME280;21602;55.670;37.578;2023-01-31T13:12:11;97572.84;;;0.95;85.32
35489;BME280;21602;55.670;37.578;2023-01-31T13:15:06;97569.19;;;0.96;85.17
35489;BME280;21602;55.670;37.578;2023-01-31T13:17:39;97557.09;;;0.95;85.23
35489;BME280;21602;55.670;37.578;2023-01-31T13:22:54;97548.19;;;0.96;85.54
35489;BME280;21602;55.670;37.578;2023-01-31T13:25:28;97559.06;;;1.00;85.33
35489;BME280;21602;55.670;37.578;2023-01-31T13:28:05;97556.63;;;0.98;85.42
35489;BME280;21602;55.670;37.578;2023-01-31T13:30:42;97544.53;;;0.97;85.17
35489;BME280;21602;55.670;37.578;2023-01-31T13:33:28;97558.69;;;0.96;85.26
35489;BME280;21602;55.670;37.578;2023-01-31T13:38:35;97555.63;;;0.99;85.10
35489;BME280;21602;55.670;37.578;2023-01-31T13:41:02;97557.66;;;0.97;85.17
35489;BME280;21602;55.670;37.578;2023-01-31T13:43:29;97570.44;;;0.94;85.19
35489;BME280;21602;55.670;37.578;2023-01-31T13:46:00;97575.31;;;0.90;85.10
35489;BME280;21602;55.670;37.578;2023-01-31T13:49:27;97593.91;;;0.89;85.18
35489;BME280;21602;55.670;37.578;2023-01-31T13:51:37;97599.38;;;0.87;85.25
35489;BME280;21602;55.670;37.578;2023-01-31T13:54:14;97612.47;;;0.94;85.25
35489;BME280;21602;55.670;37.578;2023-01-31T13:56:41;97618.91;;;0.98;85.19
35489;BME280;21602;55.670;37.578;2023-01-31T13:59:08;97605.19;;;0.96;84.96
35489;BME280;21602;55.670;37.578;2023-01-31T14:01:43;97619.69;;;0.98;84.96
35489;BME280;21602;55.670;37.578;2023-01-31T14:07:14;97616.06;;;0.99;84.84
35489;BME280;21602;55.670;37.578;2023-01-31T14:14:50;97617.22;;;1.03;84.86
35489;BME280;21602;55.670;37.578;2023-01-31T14:22:36;97624.78;;;1.18;84.26
35489;BME280;21602;55.670;37.578;2023-01-31T14:25:12;97619.75;;;1.17;84.40
35489;BME280;21602;55.670;37.578;2023-01-31T14:30:25;97620.81;;;1.09;84.59
35489;BME280;21602;55.670;37.578;2023-01-31T14:35:57;97624.53;;;1.01;84.56
35489;BME280;21602;55.670;37.578;2023-01-31T14:38:54;97628.59;;;0.97;84.59
35489;BME280;21602;55.670;37.578;2023-01-31T14:44:21;97636.25;;;1.06;84.60
35489;BME280;21602;55.670;37.578;2023-01-31T14:58:04;97638.31;;;0.97;84.86
35489;BME280;21602;55.670;37.578;2023-01-31T15:00:37;97639.69;;;0.99;84.74
35489;BME280;21602;55.670;37.578;2023-01-31T15:03:24;97646.13;;;1.03;84.80
35489;BME280;21602;55.670;37.578;2023-01-31T15:06:21;97640.53;;;1.00;84.97
35489;BME280;21602;55.670;37.578;2023-01-31T15:08:45;97647.16;;;1.02;84.85
35489;BME280;21602;55.670;37.578;2023-01-31T15:11:13;97640.94;;;0.97;85.07
35489;BME280;21602;55.670;37.578;2023-01-31T15:13:57;97653.84;;;0.98;85.21
35489;BME280;21602;55.670;37.578;2023-01-31T15:16:34;97649.41;;;0.99;85.06
35489;BME280;21602;55.670;37.578;2023-01-31T15:19:19;97656.28;;;1.00;85.16
35489;BME280;21602;55.670;37.578;2023-01-31T15:21:51;97657.91;;;1.01;85.31
35489;BME280;21602;55.670;37.578;2023-01-31T15:24:30;97653.59;;;1.07;85.57
35489;BME280;21602;55.670;37.578;2023-01-31T15:26:58;97655.22;;;1.08;85.44
35489;BME280;21602;55.670;37.578;2023-01-31T15:29:32;97657.25;;;1.06;85.56
35489;BME280;21602;55.670;37.578;2023-01-31T15:32:05;97656.06;;;1.01;85.70